Allenspark, Colorado
Current Conditions -  °F | °C
As of 12:55 AM on Saturday 20 Dec 2014 (Local Time) from KBDU Reporting Station
Clear Clear  
Wind Chill: -1°   Ceiling: Unl
Heat Index: -1°   Visibility: 10mi
Dew Point: -7°   Wind: 0mph
Humidity: 64%   Direction: NA
Pressure: 29.99"   Gusts: NA
Location:  40.19°N, 105.53°W
Report Text: KBDU 200755Z AUTO 00000KT 10SM CLR M01/M07 A2999 RMK AO2
Loading
Personal Weather Stations






























Interactive Weather Map New forecast layout! Learn more

10-Day Weather Forecast

Advertisements
Track Severe Weather on mobile